Time;durP1;ratioP1;P1;durP2;ratioP2;P2;SDS_P1;SDS_P2;PMS_P1;PMS_P2;Temp;Humidity;BMP_temperature;BMP_pressure;BME280_temperature;BME280_humidity;BME280_pressure;Samples;Min_cycle;Max_cycle;Signal;HPM_P1;HPM_P2
2021/07/01 07:07:56;;;;;;;5.00;1.97;;;16.20;99.90;;;;;;4301980;26;20226;-74
2021/07/01 07:10:23;;;;;;;4.03;1.90;;;16.40;99.90;;;;;;4994048;28;20285;-74
2021/07/01 07:12:53;;;;;;;7.00;4.13;;;16.50;99.90;;;;;;4990002;28;20227;-77
2021/07/01 07:15:26;;;;;;;5.80;2.23;;;16.50;99.90;;;;;;4992315;28;20210;-73
2021/07/01 07:17:54;;;;;;;3.00;1.63;;;16.30;99.90;;;;;;4993881;28;20206;-73
2021/07/01 07:20:24;;;;;;;5.23;2.00;;;16.20;99.90;;;;;;4993923;28;20553;-74
2021/07/01 07:22:54;;;;;;;3.50;1.93;;;16.10;99.90;;;;;;4987859;28;20234;-77
2021/07/01 07:25:23;;;;;;;2.93;1.87;;;16.10;99.90;;;;;;4991766;28;20207;-78
2021/07/01 07:27:55;;;;;;;3.83;2.13;;;16.00;99.90;;;;;;4993925;28;20206;-76
2021/07/01 07:30:26;;;;;;;6.80;1.83;;;16.10;99.90;;;;;;4993856;28;20203;-78
2021/07/01 07:32:55;;;;;;;6.10;2.07;;;16.10;99.90;;;;;;4993284;28;20230;-77
2021/07/01 07:35:22;;;;;;;5.90;2.57;;;16.00;99.90;;;;;;4993822;28;20209;-78
2021/07/01 07:37:49;;;;;;;4.60;2.50;;;16.00;99.90;;;;;;4993587;28;20573;-77
2021/07/01 07:40:17;;;;;;;5.40;2.03;;;16.10;99.90;;;;;;4993917;28;20210;-77
2021/07/01 07:42:46;;;;;;;7.67;1.67;;;16.20;99.90;;;;;;4993107;28;20238;-77
2021/07/01 07:45:14;;;;;;;4.00;1.70;;;16.20;99.90;;;;;;4993198;28;20277;-77
2021/07/01 07:47:41;;;;;;;5.30;1.87;;;16.30;99.90;;;;;;4993627;28;20206;-77
2021/07/01 07:50:11;;;;;;;3.90;1.60;;;16.40;99.90;;;;;;4993773;28;20206;-77
2021/07/01 07:52:45;;;;;;;5.47;1.90;;;16.40;99.90;;;;;;4993394;28;20232;-77
2021/07/01 07:55:15;;;;;;;4.33;1.57;;;16.40;99.90;;;;;;4993456;28;20210;-77
2021/07/01 07:57:46;;;;;;;3.60;1.77;;;16.50;99.90;;;;;;4993024;28;20210;-77
2021/07/01 08:00:14;;;;;;;5.73;2.00;;;16.50;99.90;;;;;;4993551;28;20206;-77
2021/07/01 08:02:49;;;;;;;2.80;1.60;;;16.50;99.90;;;;;;4993652;28;20238;-77
2021/07/01 08:05:21;;;;;;;2.37;1.70;;;16.60;99.90;;;;;;4993483;28;20217;-77
2021/07/01 08:07:49;;;;;;;3.17;1.80;;;16.60;99.90;;;;;;4993024;28;20593;-77
2021/07/01 08:10:18;;;;;;;3.03;1.67;;;16.60;99.90;;;;;;4993009;28;20203;-77
2021/07/01 08:12:50;;;;;;;3.93;1.60;;;16.50;99.90;;;;;;4993319;28;20273;-77
2021/07/01 08:15:19;;;;;;;8.03;1.90;;;16.60;99.90;;;;;;4993331;28;20246;-77
2021/07/01 08:17:47;;;;;;;5.67;2.00;;;16.70;99.90;;;;;;4993179;28;20256;-77
2021/07/01 08:20:15;;;;;;;4.40;1.60;;;16.90;99.90;;;;;;4993183;28;20642;-77
2021/07/01 08:22:44;;;;;;;5.57;1.80;;;17.10;99.90;;;;;;4992900;28;20689;-77
2021/07/01 08:25:12;;;;;;;3.83;1.70;;;17.20;99.90;;;;;;4993635;28;20207;-77
2021/07/01 08:27:39;;;;;;;4.83;1.67;;;17.50;99.90;;;;;;4993489;28;20213;-77
2021/07/01 08:30:08;;;;;;;4.23;1.80;;;17.40;99.90;;;;;;4993386;28;20202;-76
2021/07/01 08:32:37;;;;;;;2.70;1.60;;;17.40;99.90;;;;;;4993112;28;20677;-77
2021/07/01 08:35:05;;;;;;;3.30;1.63;;;17.40;99.90;;;;;;4993253;28;20206;-78
2021/07/01 08:37:33;;;;;;;4.10;1.63;;;17.40;99.90;;;;;;4995976;28;20211;-77
2021/07/01 08:40:01;;;;;;;3.87;1.40;;;17.50;99.90;;;;;;4997250;28;20629;-77
2021/07/01 08:42:33;;;;;;;4.67;1.30;;;17.50;99.90;;;;;;4996995;28;20240;-77
2021/07/01 08:45:05;;;;;;;11.43;2.00;;;17.60;99.90;;;;;;4996876;28;20207;-77
2021/07/01 08:47:34;;;;;;;3.53;1.80;;;17.60;99.90;;;;;;4996913;28;20692;-77
2021/07/01 08:50:03;;;;;;;4.73;2.10;;;17.70;99.90;;;;;;4996729;28;20672;-77
2021/07/01 08:52:32;;;;;;;4.00;1.40;;;17.90;99.90;;;;;;4996762;28;20206;-77
2021/07/01 08:55:00;;;;;;;3.07;1.43;;;17.90;99.90;;;;;;4996859;28;20207;-77
2021/07/01 08:57:29;;;;;;;2.00;1.40;;;17.90;99.90;;;;;;4996746;28;20202;-77
2021/07/01 09:00:07;;;;;;;3.00;1.73;;;17.80;99.90;;;;;;4996568;28;20557;-77
2021/07/01 09:02:37;;;;;;;3.53;1.80;;;18.00;99.90;;;;;;4996356;28;20230;-77
2021/07/01 09:05:09;;;;;;;3.10;1.40;;;18.10;99.90;;;;;;4996511;28;20657;-77
2021/07/01 09:07:38;;;;;;;2.50;1.10;;;18.20;99.90;;;;;;4989892;28;20313;-76
2021/07/01 09:10:09;;;;;;;4.80;1.37;;;18.20;99.90;;;;;;4974943;28;20681;-76
2021/07/01 09:12:42;;;;;;;2.90;1.37;;;18.30;99.90;;;;;;4976608;28;20207;-76
2021/07/01 09:15:10;;;;;;;2.47;1.10;;;18.30;99.90;;;;;;4976679;28;20681;-76
2021/07/01 09:17:46;;;;;;;3.70;1.03;;;18.50;99.90;;;;;;4979717;28;20199;-75
2021/07/01 09:20:18;;;;;;;3.87;1.70;;;18.60;99.90;;;;;;4996264;28;20284;-75
2021/07/01 09:22:45;;;;;;;1.70;1.13;;;18.50;99.90;;;;;;4996250;28;20620;-75
2021/07/01 09:25:12;;;;;;;4.47;1.23;;;18.30;99.90;;;;;;4996041;28;20209;-76
2021/07/01 09:27:45;;;;;;;2.27;1.30;;;18.30;99.90;;;;;;4979199;28;20203;-76
2021/07/01 09:30:13;;;;;;;3.77;1.20;;;18.40;99.90;;;;;;4976701;28;20211;-75
2021/07/01 09:32:42;;;;;;;6.10;1.27;;;18.30;99.90;;;;;;4976774;28;20227;-74
2021/07/01 09:35:11;;;;;;;4.23;1.60;;;18.40;99.90;;;;;;4976858;28;20214;-75
2021/07/01 09:37:42;;;;;;;4.20;1.43;;;18.50;99.90;;;;;;4976302;28;20207;-75
2021/07/01 09:40:11;;;;;;;2.60;1.30;;;18.40;99.90;;;;;;4976695;28;20291;-75
2021/07/01 09:42:38;;;;;;;4.20;1.70;;;18.40;99.90;;;;;;4976346;28;20254;-73
2021/07/01 09:45:07;;;;;;;5.40;1.40;;;18.30;99.90;;;;;;4975971;28;20233;-76
2021/07/01 09:47:38;;;;;;;3.07;1.60;;;18.40;99.90;;;;;;4978480;28;20215;-77
2021/07/01 09:50:08;;;;;;;2.13;1.40;;;18.40;99.90;;;;;;4995462;28;20213;-77
2021/07/01 09:52:38;;;;;;;3.80;1.30;;;18.40;99.90;;;;;;4995537;28;20212;-76
2021/07/01 09:55:06;;;;;;;3.73;1.43;;;18.60;99.90;;;;;;4995658;28;20217;-75
2021/07/01 09:57:37;;;;;;;5.07;1.40;;;18.60;99.90;;;;;;4995313;28;20220;-76
2021/07/01 10:00:08;;;;;;;3.30;1.45;;;18.80;99.90;;;;;;4995676;28;20221;-75
2021/07/01 10:02:36;;;;;;;8.30;1.60;;;19.10;99.90;;;;;;4991161;28;20255;-75
2021/07/01 10:05:06;;;;;;;4.90;1.60;;;19.20;99.90;;;;;;4976243;28;20230;-74
2021/07/01 10:07:33;;;;;;;3.37;1.40;;;19.30;99.90;;;;;;4977490;28;20218;-75
2021/07/01 10:10:14;;;;;;;2.90;1.43;;;19.40;99.90;;;;;;4992722;28;20217;-77
2021/07/01 10:12:50;;;;;;;2.35;1.15;;;19.40;99.90;;;;;;4955058;28;20232;-81
2021/07/01 10:15:28;;;;;;;2.17;1.23;;;19.40;99.90;;;;;;4955056;29;20722;-78
2021/07/01 10:18:08;;;;;;;2.17;1.20;;;19.70;99.90;;;;;;4965339;28;20209;-74
2021/07/01 10:20:38;;;;;;;3.92;1.48;;;20.00;99.90;;;;;;4993931;28;20210;-77
2021/07/01 10:23:18;;;;;;;3.30;1.60;;;20.30;99.90;;;;;;4993651;28;20236;-74
2021/07/01 10:25:46;;;;;;;4.90;1.50;;;20.40;99.90;;;;;;4993105;28;20665;-73
2021/07/01 10:28:14;;;;;;;5.30;1.60;;;20.50;99.90;;;;;;4993430;28;20257;-76
2021/07/01 10:30:42;;;;;;;2.63;1.40;;;20.60;99.90;;;;;;4993310;28;20217;-74
2021/07/01 10:33:23;;;;;;;3.53;1.70;;;20.60;99.90;;;;;;4992103;28;20385;-75
2021/07/01 10:35:52;;;;;;;3.10;1.88;;;20.50;99.90;;;;;;4974306;28;20305;-75
2021/07/01 10:38:19;;;;;;;5.07;1.50;;;20.40;99.90;;;;;;4982018;28;20731;-77
2021/07/01 10:40:48;;;;;;;6.68;1.65;;;20.30;99.90;;;;;;4992497;28;20221;-75
2021/07/01 10:43:17;;;;;;;3.28;1.85;;;20.10;99.90;;;;;;4993429;28;20238;-77
2021/07/01 10:45:55;;;;;;;3.78;1.42;;;20.00;99.90;;;;;;4993441;28;20664;-77
2021/07/01 10:48:23;;;;;;;4.55;1.67;;;19.70;99.90;;;;;;4992829;28;20208;-78
2021/07/01 10:50:53;;;;;;;4.57;1.52;;;19.70;99.90;;;;;;4993316;28;20665;-78
2021/07/01 10:53:34;;;;;;;7.40;1.77;;;19.80;99.90;;;;;;4993116;28;20232;-82
2021/07/01 10:56:05;;;;;;;5.10;1.70;;;19.90;99.90;;;;;;4992869;28;20207;-85
2021/07/01 10:58:32;;;;;;;3.75;1.63;;;20.00;99.90;;;;;;4992760;28;20202;-78
2021/07/01 11:01:01;;;;;;;5.57;1.90;;;19.90;99.90;;;;;;4992318;28;20824;-79
2021/07/01 11:03:30;;;;;;;3.83;1.40;;;19.70;99.90;;;;;;4992431;28;20289;-76
2021/07/01 11:06:00;;;;;;;6.90;1.80;;;19.60;99.90;;;;;;4993015;28;20233;-75
2021/07/01 11:08:30;;;;;;;3.63;1.73;;;19.60;99.90;;;;;;4992409;28;20210;-77
2021/07/01 11:10:59;;;;;;;3.95;1.40;;;19.60;99.90;;;;;;4991853;28;20568;-81
2021/07/01 11:13:27;;;;;;;3.65;1.85;;;19.70;99.90;;;;;;4993574;28;20222;-74
2021/07/01 11:16:06;;;;;;;2.40;1.50;;;19.90;99.90;;;;;;4994383;28;20206;-73
2021/07/01 11:18:37;;;;;;;3.20;1.70;;;19.70;99.90;;;;;;4994017;28;20220;-72
2021/07/01 11:21:11;;;;;;;3.38;1.70;;;19.70;99.90;;;;;;4994007;28;20210;-72
2021/07/01 11:23:38;;;;;;;6.75;1.63;;;19.80;99.90;;;;;;4993658;28;20242;-73
2021/07/01 11:26:23;;;;;;;7.47;1.90;;;20.00;99.90;;;;;;4993901;28;20210;-74
2021/07/01 11:28:50;;;;;;;4.38;1.67;;;20.20;99.90;;;;;;4993953;28;20636;-72
2021/07/01 11:31:17;;;;;;;3.60;1.77;;;20.40;99.90;;;;;;4993602;28;20213;-73
2021/07/01 11:33:50;;;;;;;4.80;1.70;;;20.70;99.90;;;;;;4993802;28;20704;-73
2021/07/01 11:36:20;;;;;;;5.15;1.73;;;20.70;99.90;;;;;;4993712;28;20265;-72
2021/07/01 11:38:48;;;;;;;6.75;2.05;;;20.50;99.90;;;;;;4993655;28;20662;-72
2021/07/01 11:41:17;;;;;;;7.10;2.15;;;20.50;99.90;;;;;;4994013;28;20210;-72
2021/07/01 11:43:46;;;;;;;5.30;1.90;;;20.50;99.90;;;;;;4993606;28;20245;-73
2021/07/01 11:46:13;;;;;;;3.70;1.90;;;20.20;99.90;;;;;;4993745;28;20293;-72
2021/07/01 11:48:43;;;;;;;6.25;2.47;;;20.10;99.90;;;;;;4993583;28;20207;-72
2021/07/01 11:51:10;;;;;;;5.38;2.10;;;20.10;99.90;;;;;;4993552;28;20550;-73
2021/07/01 11:53:38;;;;;;;5.78;2.05;;;19.80;99.90;;;;;;4993192;28;20229;-72
2021/07/01 11:56:05;;;;;;;5.40;2.20;;;19.60;99.90;;;;;;4993677;28;20206;-72
2021/07/01 11:58:32;;;;;;;3.92;1.75;;;19.50;99.90;;;;;;4993503;28;20221;-72
2021/07/01 12:00:59;;;;;;;3.70;2.00;;;19.60;99.90;;;;;;4993661;28;20217;-73
2021/07/01 12:03:29;;;;;;;4.90;1.92;;;19.70;99.90;;;;;;4993134;28;20709;-72
2021/07/01 12:05:56;;;;;;;6.07;2.13;;;19.90;99.90;;;;;;4993267;28;20661;-72
2021/07/01 12:08:24;;;;;;;6.72;2.15;;;19.90;99.90;;;;;;4993216;28;20233;-73
2021/07/01 12:11:00;;;;;;;5.28;1.42;;;19.90;99.90;;;;;;4995207;28;20210;-72
2021/07/01 12:13:43;;;;;;;4.90;2.10;;;19.90;99.90;;;;;;4997413;28;20229;-73
2021/07/01 12:16:12;;;;;;;4.97;2.05;;;20.00;99.90;;;;;;4997168;28;20206;-72
2021/07/01 12:18:56;;;;;;;5.80;2.55;;;20.00;99.90;;;;;;4997540;28;20217;-72
2021/07/01 12:21:26;;;;;;;4.65;1.65;;;20.20;99.90;;;;;;4991101;28;20214;-73
2021/07/01 12:23:54;;;;;;;6.20;1.92;;;20.40;99.90;;;;;;4974169;28;20238;-73
2021/07/01 12:26:38;;;;;;;9.02;2.28;;;20.70;99.90;;;;;;4974109;28;20225;-73
2021/07/01 12:29:08;;;;;;;4.80;1.65;;;20.80;99.90;;;;;;4975722;28;20215;-73
2021/07/01 12:31:36;;;;;;;5.18;2.03;;;20.80;99.90;;;;;;4974968;28;20211;-77
2021/07/01 12:34:04;;;;;;;5.07;2.15;;;21.10;99.90;;;;;;4976239;28;20231;-76
2021/07/01 12:36:32;;;;;;;3.17;1.83;;;21.40;99.90;;;;;;4976779;28;20677;-78
2021/07/01 12:39:19;;;;;;;5.82;2.53;;;21.50;99.90;;;;;;4976689;28;20211;-73
2021/07/01 12:41:49;;;;;;;7.55;2.15;;;21.40;99.90;;;;;;4975459;28;20199;-74
2021/07/01 12:44:18;;;;;;;5.05;2.30;;;21.40;99.90;;;;;;4976676;28;20278;-75
2021/07/01 12:47:03;;;;;;;4.85;2.10;;;21.30;99.90;;;;;;4977062;28;20258;-74
2021/07/01 12:49:52;;;;;;;5.18;2.15;;;21.20;99.90;;;;;;4981005;28;20211;-75
2021/07/01 12:52:31;;;;;;;5.68;1.90;;;21.10;99.90;;;;;;4996750;28;20249;-76
2021/07/01 12:54:59;;;;;;;4.10;1.90;;;21.00;99.90;;;;;;4996671;28;20212;-74
2021/07/01 12:57:28;;;;;;;4.95;2.17;;;20.70;99.90;;;;;;4996402;28;20210;-76
2021/07/01 12:59:56;;;;;;;5.82;2.10;;;20.50;99.90;;;;;;4983873;28;20635;-75
2021/07/01 13:02:29;;;;;;;4.22;2.15;;;20.60;99.90;;;;;;4992551;28;20205;-79
2021/07/01 13:04:58;;;;;;;4.82;2.22;;;20.60;99.90;;;;;;4995110;28;20773;-76
2021/07/01 13:07:28;;;;;;;4.57;2.17;;;21.00;99.90;;;;;;4994681;28;20337;-74
2021/07/01 13:09:59;;;;;;;4.60;1.92;;;21.00;99.90;;;;;;4986808;28;20206;-79
2021/07/01 13:12:31;;;;;;;3.42;1.80;;;20.70;99.90;;;;;;4975328;28;20211;-76
2021/07/01 13:15:00;;;;;;;5.20;1.90;;;20.50;99.90;;;;;;4976239;28;20213;-80
2021/07/01 13:17:28;;;;;;;4.13;1.75;;;20.30;99.90;;;;;;4975403;28;20207;-77
2021/07/01 13:19:57;;;;;;;2.40;1.70;;;20.30;99.90;;;;;;4983314;28;20206;-75
2021/07/01 13:22:26;;;;;;;5.07;1.95;;;20.60;99.90;;;;;;4993450;28;20255;-80
2021/07/01 13:24:55;;;;;;;4.75;1.60;;;20.70;99.90;;;;;;4994504;28;20270;-79
2021/07/01 13:27:39;;;;;;;5.00;1.60;;;20.80;99.90;;;;;;4994881;28;20214;-81
2021/07/01 13:30:10;;;;;;;3.22;1.52;;;20.90;99.90;;;;;;4994068;28;20680;-75
2021/07/01 13:32:37;;;;;;;4.88;1.95;;;21.10;99.90;;;;;;4994557;28;20207;-73
2021/07/01 13:35:06;;;;;;;4.00;2.22;;;20.90;99.90;;;;;;4985305;28;20231;-74
2021/07/01 13:37:34;;;;;;;5.18;1.63;;;21.10;99.90;;;;;;4974410;28;20272;-74
2021/07/01 13:40:14;;;;;;;4.30;1.70;;;21.30;99.90;;;;;;4983133;28;20205;-74
2021/07/01 13:42:43;;;;;;;4.65;2.10;;;21.40;99.90;;;;;;4994648;28;20226;-73
2021/07/01 13:45:12;;;;;;;2.40;1.60;;;21.60;99.90;;;;;;4993854;28;20238;-80
2021/07/01 13:47:44;;;;;;;3.95;1.80;;;21.70;99.90;;;;;;4994301;28;20202;-69
2021/07/01 13:50:20;;;;;;;4.22;2.20;;;21.80;99.90;;;;;;4994198;28;20206;-76
2021/07/01 13:52:48;;;;;;;8.85;2.92;;;21.80;99.90;;;;;;4993687;28;20727;-75
2021/07/01 13:55:22;;;;;;;4.28;2.55;;;21.70;99.90;;;;;;4994582;28;20240;-75
2021/07/01 13:57:51;;;;;;;5.13;2.47;;;21.60;99.90;;;;;;4994339;28;20756;-76
2021/07/01 14:00:23;;;;;;;4.32;2.28;;;21.90;99.90;;;;;;4993349;28;20737;-74
2021/07/01 14:02:51;;;;;;;7.38;2.50;;;22.20;99.90;;;;;;4994206;28;20258;-72
2021/07/01 14:05:33;;;;;;;5.03;2.97;;;22.20;99.90;;;;;;4991593;28;20245;-74
2021/07/01 14:08:01;;;;;;;5.80;2.90;;;22.10;99.90;;;;;;4974306;28;20215;-76
2021/07/01 14:10:30;;;;;;;4.78;2.50;;;22.00;99.90;;;;;;4985704;28;20234;-75
2021/07/01 14:12:59;;;;;;;6.57;2.80;;;21.70;99.90;;;;;;4993897;28;20222;-74
2021/07/01 14:15:26;;;;;;;4.68;2.50;;;21.70;99.90;;;;;;4993344;28;20309;-74
2021/07/01 14:17:55;;;;;;;3.92;1.90;;;21.60;99.90;;;;;;4993972;28;20399;-74
2021/07/01 14:20:23;;;;;;;5.95;2.20;;;21.30;99.90;;;;;;4993527;28;20213;-74
2021/07/01 14:22:50;;;;;;;7.45;1.77;;;21.40;99.90;;;;;;4992800;28;20262;-73
2021/07/01 14:25:37;;;;;;;3.60;2.00;;;21.30;99.90;;;;;;4994909;28;20234;-73
2021/07/01 14:28:07;;;;;;;4.28;2.40;;;21.20;99.90;;;;;;4995172;28;20244;-71
2021/07/01 14:30:40;;;;;;;5.72;2.75;;;20.80;99.90;;;;;;4994793;28;20691;-73
2021/07/01 14:33:26;;;;;;;3.72;2.47;;;20.80;99.90;;;;;;4989865;28;20230;-70
2021/07/01 14:36:16;;;;;;;5.38;2.40;;;20.90;99.90;;;;;;4975469;28;20214;-71
2021/07/01 14:38:44;;;;;;;5.88;2.17;;;20.90;99.90;;;;;;4974281;28;20215;-71
2021/07/01 14:41:13;;;;;;;5.78;2.78;;;20.70;99.90;;;;;;4992612;28;20214;-72
2021/07/01 14:43:44;;;;;;;6.93;2.40;;;20.80;99.90;;;;;;4994654;28;20231;-73
2021/07/01 14:46:22;;;;;;;5.65;2.65;;;21.00;99.90;;;;;;4994341;28;20230;-70
2021/07/01 14:48:51;;;;;;;3.80;2.22;;;21.10;99.90;;;;;;4994709;28;20210;-72
2021/07/01 14:51:20;;;;;;;4.60;2.30;;;21.20;99.90;;;;;;4994547;28;20206;-70
2021/07/01 14:53:48;;;;;;;7.30;2.30;;;21.30;99.90;;;;;;4994437;28;20681;-72
2021/07/01 14:56:15;;;;;;;4.72;2.30;;;21.40;99.90;;;;;;4994450;28;20214;-71
2021/07/01 14:58:53;;;;;;;5.25;2.10;;;21.40;99.90;;;;;;4994131;28;20211;-71
2021/07/01 15:01:20;;;;;;;6.25;2.70;;;21.60;99.90;;;;;;4994453;28;20208;-72
2021/07/01 15:03:59;;;;;;;3.38;2.10;;;21.80;99.90;;;;;;4994067;28;20222;-71
2021/07/01 15:06:33;;;;;;;4.70;2.20;;;21.60;99.90;;;;;;4993972;28;20220;-72
2021/07/01 15:09:11;;;;;;;4.10;2.17;;;21.50;99.90;;;;;;4993941;28;20257;-72
2021/07/01 15:11:44;;;;;;;5.60;1.90;;;21.40;99.90;;;;;;4994230;28;20210;-72
2021/07/01 15:14:13;;;;;;;6.90;2.40;;;21.30;99.90;;;;;;4993861;28;20226;-72
2021/07/01 18:16:44;;;;;;;2.58;1.58;;;18.80;99.90;;;;;;4101322;22;20274;-76
2021/07/01 18:19:11;;;;;;;3.87;1.87;;;18.80;99.90;;;;;;4980914;28;20203;-76
2021/07/01 18:21:38;;;;;;;2.63;1.50;;;18.60;99.90;;;;;;4984128;28;20211;-76
2021/07/01 18:24:06;;;;;;;4.83;1.50;;;18.50;99.90;;;;;;4987656;28;20578;-76
2021/07/01 18:26:33;;;;;;;4.47;1.73;;;18.60;99.90;;;;;;4989615;28;20360;-76
2021/07/01 18:29:00;;;;;;;4.27;1.60;;;18.50;99.90;;;;;;4988661;28;20213;-76
2021/07/01 18:31:27;;;;;;;5.10;1.52;;;18.60;99.90;;;;;;4987091;28;20211;-76
2021/07/01 18:33:55;;;;;;;6.37;1.80;;;18.60;99.90;;;;;;4981400;28;20592;-72
2021/07/01 18:36:23;;;;;;;2.33;1.20;;;18.60;99.90;;;;;;4985350;28;20222;-76
2021/07/01 18:38:50;;;;;;;6.50;2.13;;;18.60;99.90;;;;;;4986258;28;20207;-76
2021/07/01 18:41:17;;;;;;;4.90;2.05;;;18.60;99.90;;;;;;4988817;28;20207;-76
2021/07/01 18:43:45;;;;;;;2.23;1.30;;;18.60;99.90;;;;;;4988354;28;20226;-76
2021/07/01 18:46:12;;;;;;;3.10;1.70;;;18.60;99.90;;;;;;4985304;28;20266;-76
2021/07/01 18:48:40;;;;;;;5.50;1.70;;;18.60;99.90;;;;;;4981769;28;20215;-77
2021/07/01 18:51:08;;;;;;;2.90;1.40;;;18.60;99.90;;;;;;4988604;28;20213;-76
2021/07/01 18:53:35;;;;;;;3.67;1.53;;;18.50;99.90;;;;;;4979481;28;20230;-77
2021/07/01 18:56:01;;;;;;;5.63;1.47;;;18.50;99.90;;;;;;4983632;28;20685;-76
2021/07/01 18:58:31;;;;;;;4.33;1.40;;;18.50;99.90;;;;;;4989252;28;20210;-76
2021/07/01 19:00:58;;;;;;;2.90;1.50;;;18.50;99.90;;;;;;4986553;28;20763;-76
2021/07/01 19:03:25;;;;;;;2.10;1.30;;;18.50;99.90;;;;;;4984380;28;20219;-76
2021/07/01 19:05:52;;;;;;;5.00;1.50;;;18.40;99.90;;;;;;4985584;28;20235;-76
2021/07/01 19:08:21;;;;;;;2.00;1.37;;;18.30;99.90;;;;;;4985067;28;20203;-76
2021/07/01 19:10:48;;;;;;;3.10;1.70;;;18.30;99.90;;;;;;4983240;28;20207;-76
2021/07/01 19:13:15;;;;;;;2.73;1.63;;;18.20;99.90;;;;;;4981329;28;20222;-77
2021/07/01 19:15:43;;;;;;;3.53;1.63;;;18.10;99.90;;;;;;4985747;28;20297;-76
2021/07/01 19:18:10;;;;;;;4.13;1.37;;;18.10;99.90;;;;;;4985236;28;20219;-76
2021/07/01 19:20:37;;;;;;;2.73;1.40;;;17.90;99.90;;;;;;4987221;28;20211;-76
2021/07/01 19:23:03;;;;;;;4.57;1.30;;;17.90;99.90;;;;;;4976595;28;20237;-76
2021/07/01 19:25:32;;;;;;;3.03;1.47;;;17.80;99.90;;;;;;4981095;28;21372;-76
2021/07/01 19:27:58;;;;;;;3.53;1.40;;;17.70;99.90;;;;;;4987016;28;20692;-76
2021/07/01 19:30:25;;;;;;;3.20;1.27;;;17.60;99.90;;;;;;4980930;28;20211;-77
2021/07/01 19:32:52;;;;;;;3.87;1.63;;;17.50;99.90;;;;;;4977507;28;20227;-76
2021/07/01 19:35:19;;;;;;;3.47;1.47;;;17.50;99.90;;;;;;4988801;28;20239;-76
2021/07/01 19:37:46;;;;;;;4.47;1.60;;;17.50;99.90;;;;;;4980359;28;20294;-77
2021/07/01 19:40:14;;;;;;;2.57;1.60;;;17.40;99.90;;;;;;4980108;28;20313;-76
2021/07/01 19:42:44;;;;;;;4.33;1.80;;;17.30;99.90;;;;;;4985628;28;20207;-76
2021/07/01 19:45:12;;;;;;;4.13;2.17;;;17.20;99.90;;;;;;4989094;28;20237;-77
2021/07/01 19:47:41;;;;;;;2.87;1.47;;;17.10;99.90;;;;;;4993011;28;20214;-76
2021/07/01 19:50:08;;;;;;;3.77;1.40;;;17.00;99.90;;;;;;4982964;28;20206;-76
2021/07/01 19:52:36;;;;;;;7.80;1.80;;;17.10;99.90;;;;;;4985667;28;20285;-76
2021/07/01 19:55:03;;;;;;;3.23;1.67;;;17.00;99.90;;;;;;4983992;28;20215;-76
2021/07/01 19:57:31;;;;;;;4.00;1.57;;;17.00;99.90;;;;;;4990474;28;20213;-76
2021/07/01 20:00:01;;;;;;;3.03;1.17;;;16.80;99.90;;;;;;4986559;28;20210;-76
2021/07/01 20:02:30;;;;;;;4.90;1.87;;;16.80;99.90;;;;;;4989242;28;20551;-76
2021/07/01 20:04:57;;;;;;;3.70;1.90;;;16.80;99.90;;;;;;4988082;28;20735;-76
2021/07/01 20:07:24;;;;;;;4.60;1.90;;;16.80;99.90;;;;;;4982803;28;20673;-76
2021/07/01 20:09:51;;;;;;;3.37;1.63;;;16.70;99.90;;;;;;4983552;28;20225;-76
2021/07/01 20:12:18;;;;;;;7.03;1.80;;;16.70;99.90;;;;;;4988189;28;20203;-76
2021/07/01 20:14:45;;;;;;;3.17;1.70;;;16.70;99.90;;;;;;4987107;28;20576;-76
2021/07/01 20:17:13;;;;;;;4.00;1.40;;;16.50;99.90;;;;;;4988322;28;20292;-76
2021/07/01 20:19:40;;;;;;;2.90;1.63;;;16.40;99.90;;;;;;4983318;28;20283;-76
2021/07/01 20:22:07;;;;;;;3.50;1.77;;;16.10;99.90;;;;;;4979602;28;20223;-76
2021/07/01 20:24:34;;;;;;;3.37;1.50;;;16.00;99.90;;;;;;4984923;28;20680;-76
2021/07/01 20:27:01;;;;;;;4.03;1.70;;;15.90;99.90;;;;;;4985024;28;20230;-76
2021/07/01 20:29:28;;;;;;;4.00;1.47;;;15.80;99.90;;;;;;4987055;28;20584;-76
2021/07/01 20:31:55;;;;;;;6.90;1.97;;;15.80;99.90;;;;;;4986958;28;20679;-76
2021/07/01 20:34:24;;;;;;;4.20;2.00;;;15.80;99.90;;;;;;4986966;28;20317;-76
2021/07/01 20:36:51;;;;;;;3.10;1.60;;;15.80;99.90;;;;;;4992181;28;20573;-76
2021/07/01 20:39:18;;;;;;;4.13;1.80;;;15.70;99.90;;;;;;4994578;28;20213;-76
2021/07/01 20:41:45;;;;;;;4.67;2.20;;;15.70;99.90;;;;;;4993580;28;20241;-76
2021/07/01 20:44:12;;;;;;;5.60;2.20;;;15.50;99.90;;;;;;4996334;28;20222;-76
2021/07/01 20:46:40;;;;;;;5.77;2.40;;;15.40;99.90;;;;;;4995422;28;20237;-76
2021/07/01 20:49:07;;;;;;;4.63;2.10;;;15.40;99.90;;;;;;4995590;28;20649;-76
2021/07/01 20:51:35;;;;;;;4.30;2.17;;;15.40;99.90;;;;;;4996218;28;20400;-76
2021/07/01 20:54:05;;;;;;;3.90;2.57;;;15.30;99.90;;;;;;4996198;28;20218;-77
2021/07/01 20:56:32;;;;;;;5.13;2.47;;;15.20;99.90;;;;;;4996383;28;20199;-77
2021/07/01 20:58:58;;;;;;;5.47;2.80;;;15.20;99.90;;;;;;4996554;28;20209;-76
